Terminal Aerodrome Forecast
Issued by NWS Flagstaff, AZ

Current Version | Previous Version | Text Only | Print | Product List | Glossary On
Versions: 1 2 3 4 5 6 7 8 9 10 11 12 13
000
FTUS45 KFGZ 021720
TAFFLG
TAF
KFLG 021720Z 0218/0318 21010KT P6SM SCT050 SCT250
     FM030200 VRB03KT P6SM FEW250=

USA.gov is the U.S. government's official web portal to all federal, state and local government web resources and services.